Latest Coastal Weather Observations for Onslow Airport

IDW60701

Issued at 7:53 am WST Thursday 23 November 2017 (issued every 10 minutes, with the page automatically refreshed every 10 minutes)

About coastal observations | Map of coastal stations | Coastal observations for WA | Marine services | Other Formats
Station Details ID: 005017 Name: ONSLOW AIRPORT Lat: -21.67 Lon: 115.11 Height: 10.5 m
Data from the previous 72 hours. | See also: Recent months at Onslow Airport
Date/Time
WST
Temp
°C
Wind Pressure Rain since
9am
mm
Weather Cloud Vis
km
Sea
Height
m
Swell
Dir  Spd
kts
Gust
kts
hPa Trend Height
m
Period
s
Dir
23/07:30am 32.4 SSE 9 12 1005.2 - 0.0 - - 10 - - - -
23/07:00am 29.7 S 9 11 1004.8 - 0.0 - - 10 - - - -
23/06:30am 27.0 SSW 10 12 1004.5 - 0.0 - - 10 - - - -
23/06:00am 25.6 SSW 10 12 1004.4 - 0.0 - - 10 - - - -
23/05:30am 25.3 SSW 11 15 1004.1 - 0.0 - - 10 - - - -
23/05:00am 25.5 SW 12 14 1003.7 - 0.0 - - 10 - - - -
23/04:30am 25.8 SSW 12 14 1003.3 - 0.0 - - 10 - - - -
23/04:00am 26.1 SSW 12 15 1003.3 - 0.0 - - 10 - - - -
23/03:30am 26.5 SSW 12 16 1003.2 - 0.0 - - 10 - - - -
23/03:00am 26.8 SW 11 14 1003.4 - 0.0 - - 10 - - - -
23/02:30am 27.0 SW 12 14 1003.3 - 0.0 - - 10 - - - -
23/02:00am 27.2 SW 11 14 1003.6 - 0.0 - - 10 - - - -
23/01:30am 27.6 SW 12 14 1003.6 - 0.0 - - 10 - - - -
23/01:00am 27.9 SW 11 13 1003.9 - 0.0 - - 10 - - - -
23/12:30am 28.2 SW 11 13 1004.1 - 0.0 - - 10 - - - -
23/12:00am 29.0 SW 12 14 1004.4 - 0.0 - - 10 - - - -
 
Date/Time
WST
Temp
°C
Wind Pressure Rain since
9am
mm
Weather Cloud Vis
km
Sea
Height
m
Swell
Dir  Spd
kts
Gust
kts
hPa Trend Height
m
Period
s
Dir
22/11:30pm 29.3 SW 11 15 1004.5 - 0.0 - - 10 - - - -
22/11:00pm 29.9 SW 12 15 1004.8 - 0.0 - - 10 - - - -
22/10:30pm 30.6 SW 14 18 1004.7 - 0.0 - - 10 - - - -
22/10:00pm 31.2 SW 14 18 1004.7 - 0.0 - - 10 - - - -
22/09:30pm 31.7 SW 14 20 1004.5 - 0.0 - - 10 - - - -
22/09:00pm 32.4 SW 16 21 1004.3 - 0.0 - - 10 - - - -
22/08:30pm 32.7 WSW 12 16 1004.3 - 0.0 - - 10 - - - -
22/08:00pm 34.2 SW 14 17 1004.1 - 0.0 - - 10 - - - -
22/07:30pm 32.9 WSW 12 16 1003.8 - 0.0 - - 10 - - - -
22/07:00pm 32.8 W 12 15 1003.5 - 0.0 - - 10 - - - -
22/06:30pm 32.8 W 13 17 1003.1 - 0.0 - - 10 - - - -
22/06:00pm 31.5 W 14 19 1003.0 - 0.0 - - 10 - - - -
22/05:30pm 31.8 W 17 20 1002.8 - 0.0 - - 10 - - - -
22/05:00pm 32.6 WNW 17 21 1002.7 - 0.0 - - 10 - - - -
22/04:30pm 33.1 WNW 17 22 1002.6 - 0.0 - - 10 - - - -
22/04:00pm 35.4 W 16 21 1002.7 - 0.0 - - 10 - - - -
22/03:30pm 35.6 W 16 21 1003.0 - 0.0 - - 10 - - - -
22/03:00pm 34.7 W 18 23 1003.3 - 0.0 - - 10 - - - -
22/02:30pm 37.1 WNW 17 21 1003.5 - 0.0 - - 10 - - - -
22/02:00pm 38.8 WNW 15 19 1003.7 - 0.0 - - 10 - - - -
22/01:30pm 37.5 W 16 20 1004.2 - 0.0 - - 10 - - - -
22/01:00pm 37.5 WNW 14 17 1004.6 - 0.0 - - 10 - - - -
22/12:30pm 39.2 WNW 12 15 1004.9 - 0.0 - - 10 - - - -
22/12:00pm 43.0 SE 5 8 1005.1 - 0.0 - - 10 - - - -
22/11:30am 42.2 SE 7 13 1005.4 - 0.0 - - 10 - - - -
22/11:00am 42.3 SE 10 14 1005.8 - 0.0 - - 10 - - - -
22/10:30am 41.7 SE 11 15 1006.0 - 0.0 - - 10 - - - -
22/10:00am 41.5 SE 12 15 1006.4 - 0.0 - - 10 - - - -
22/09:30am 40.0 SE 13 15 1006.6 - 0.0 - - 10 - - - -
22/09:00am 38.6 ESE 13 16 1006.7 - 0.0 - - 10 - - - -
22/08:30am 36.0 SE 11 13 1006.8 - 0.0 - - 10 - - - -
22/08:00am 33.8 SE 11 13 1007.0 - 0.0 - - 10 - - - -
22/07:30am 31.4 SSE 10 13 1007.0 - 0.0 - - 10 - - - -
22/07:00am 28.0 S 11 14 1007.0 - 0.0 - - 10 - - - -
22/06:30am 25.4 SSW 9 11 1006.7 - 0.0 - - 10 - - - -
22/06:00am 23.3 SSW 8 10 1006.5 - 0.0 - - 10 - - - -
22/05:30am 22.6 SSW 9 11 1006.2 - 0.0 - - 10 - - - -
22/05:00am 23.1 SSW 9 11 1006.1 - 0.0 - - 10 - - - -
22/04:30am 23.5 SSW 10 13 1006.0 - 0.0 - - 10 - - - -
22/04:00am 23.5 SSW 10 12 1006.0 - 0.0 - - 10 - - - -
22/03:30am 23.6 SSW 10 12 1006.0 - 0.0 - - 10 - - - -
22/03:00am 24.0 SSW 11 13 1006.2 - 0.0 - - 10 - - - -
22/02:30am 24.4 SSW 11 12 1006.2 - 0.0 - - 10 - - - -
22/02:00am 24.9 SSW 11 13 1006.2 - 0.0 - - 10 - - - -
22/01:30am 25.1 SSW 10 13 1006.3 - 0.0 - - 10 - - - -
22/01:00am 25.3 SW 10 12 1006.4 - 0.0 - - 10 - - - -
22/12:30am 25.7 SW 11 13 1006.6 - 0.0 - - 10 - - - -
22/12:00am 25.9 SW 11 13 1006.8 - 0.0 - - 10 - - - -
 
Date/Time
WST
Temp
°C
Wind Pressure Rain since
9am
mm
Weather Cloud Vis
km
Sea
Height
m
Swell
Dir  Spd
kts
Gust
kts
hPa Trend Height
m
Period
s
Dir
21/11:30pm 26.2 SW 11 14 1007.1 - 0.0 - - 10 - - - -
21/11:00pm 26.6 SW 12 15 1007.1 - 0.0 - - 10 - - - -
21/10:30pm 27.1 SW 11 16 1007.2 - 0.0 - - 10 - - - -
21/10:00pm 27.6 SW 13 17 1007.0 - 0.0 - - 10 - - - -
21/09:30pm 28.3 SW 13 17 1006.8 - 0.0 - - 10 - - - -
21/09:00pm 28.8 SW 15 19 1006.6 - 0.0 - - 10 - - - -
21/08:30pm 29.8 WSW 15 21 1006.4 - 0.0 - - 10 - - - -
21/08:00pm 30.4 WSW 14 19 1006.2 - 0.0 - - 10 - - - -
21/07:30pm 29.8 WSW 12 15 1006.0 - 0.0 - - 10 - - - -
21/07:00pm 30.5 WSW 13 17 1005.7 - 0.0 - - 10 - - - -
21/06:30pm 31.2 W 14 19 1005.3 - 0.0 - - 10 - - - -
21/06:00pm 33.0 W 15 19 1005.0 - 0.0 - - 10 - - - -
21/05:30pm 33.1 W 15 21 1004.9 - 0.0 - - 10 - - - -
21/05:00pm 33.0 W 16 21 1004.9 - 0.0 - - 10 - - - -
21/04:30pm 33.3 W 17 22 1004.9 - 0.0 - - 10 - - - -
21/04:00pm 33.0 W 18 23 1005.0 - 0.0 - - 10 - - - -
21/03:30pm 33.1 WNW 19 25 1005.2 - 0.0 - - 10 - - - -
21/03:00pm 33.9 WNW 20 25 1005.4 - 0.0 - - 10 - - - -
21/02:30pm 34.2 WNW 19 24 1005.7 - 0.0 - - 10 - - - -
21/02:00pm 34.2 WNW 19 23 1006.0 - 0.0 - - 10 - - - -
21/01:30pm 36.1 WNW 17 20 1006.4 - 0.0 - - 10 - - - -
21/01:00pm 36.4 WNW 15 19 1006.6 - 0.0 - - 10 - - - -
21/12:30pm 36.6 NW 13 17 1007.1 - 0.0 - - 10 - - - -
21/12:00pm 38.2 SSE 6 9 1007.6 - 0.0 - - 10 - - - -
21/11:30am 36.8 SSE 7 11 1008.0 - 0.0 - - 10 - - - -
21/11:00am 36.4 S 9 13 1008.5 - 0.0 - - 10 - - - -
21/10:30am 35.3 S 10 13 1008.9 - 0.0 - - - - - - -
21/10:00am 32.9 S 12 15 1009.2 - 0.0 - - - - - - -
21/09:30am 31.6 S 12 16 1009.4 - 0.0 - - - - - - -
21/09:00am 29.5 S 13 16 1009.6 - 0.0 - - - - - - -
21/08:30am 27.7 S 14 18 1009.8 - 0.0 - - - - - - -
21/08:00am 26.1 S 15 19 1010.0 - 0.0 - - - - - - -
21/07:30am 24.8 S 16 19 1010.1 - 0.0 - - - - - - -
21/07:00am 23.4 SSW 14 18 1010.0 - 0.0 - - - - - - -
21/06:30am 22.0 SSW 14 19 1009.9 - 0.0 - - - - - - -
21/06:00am 21.2 SSW 14 18 1009.7 - 0.0 - - - - - - -
21/05:30am 20.8 SSW 12 16 1009.6 - 0.0 - - - - - - -
21/05:00am 21.0 SSW 12 15 1009.3 - 0.0 - - - - - - -
21/04:30am 21.2 S 12 16 1009.3 - 0.0 - - - - - - -
21/04:00am 21.4 S 13 18 1009.2 - 0.0 - - - - - - -
21/03:30am 21.7 SSW 16 19 1009.0 - 0.0 - - - - - - -
21/03:00am 22.0 SSW 14 19 1008.9 - 0.0 - - - - - - -
21/02:30am 22.5 SSW 16 20 1008.8 - 0.0 - - - - - - -
21/02:00am 22.8 SSW 16 20 1008.7 - 0.0 - - - - - - -
21/01:30am 23.2 SSW 15 19 1008.8 - 0.0 - - - - - - -
21/01:00am 23.8 SSW 16 21 1009.0 - 0.0 - - 10 - - - -
21/12:30am 24.5 SSW 16 21 1009.3 - 0.0 - - 10 - - - -
21/12:00am 24.4 SSW 13 16 1009.4 - 0.0 - - 10 - - - -
 
Date/Time
WST
Temp
°C
Wind Pressure Rain since
9am
mm
Weather Cloud Vis
km
Sea
Height
m
Swell
Dir  Spd
kts
Gust
kts
hPa Trend Height
m
Period
s
Dir
20/11:30pm 24.1 SW 12 16 1009.6 - 0.0 - - 10 - - - -
20/11:00pm 24.4 SW 13 16 1009.8 - 0.0 - - 10 - - - -
20/10:30pm 24.6 SW 16 20 1009.9 - 0.0 - - 10 - - - -
20/10:00pm 24.9 SW 16 21 1009.9 - 0.0 - - 10 - - - -
20/09:30pm 25.1 SW 18 23 1009.8 - 0.0 - - 10 - - - -
20/09:00pm 25.8 SW 17 22 1009.6 - 0.0 - - 10 - - - -
20/08:30pm 26.4 SW 17 23 1009.4 - 0.0 - - 10 - - - -
20/08:00pm 27.1 WSW 16 22 1009.2 - 0.0 - - 10 - - - -
20/07:30pm 28.0 SW 16 21 1008.8 - 0.0 - - 10 - - - -
20/07:00pm 29.2 WSW 17 22 1008.4 - 0.0 - - 10 - - - -
20/06:30pm 30.8 WSW 14 19 1008.1 - 0.0 - - 10 - - - -
20/06:00pm 31.9 WSW 13 18 1007.8 - 0.0 - - 10 - - - -
20/05:30pm 30.4 W 15 20 1007.7 - 0.0 - - 10 - - - -
20/05:00pm 30.0 W 17 20 1007.7 - 0.0 - - 10 - - - -
20/04:30pm 29.8 W 17 22 1007.7 - 0.0 - - 10 - - - -
20/04:00pm 30.5 WNW 18 22 1007.9 - 0.0 - - 10 - - - -
20/03:30pm 30.4 W 19 24 1007.9 - 0.0 - - 10 - - - -
20/03:00pm 31.2 W 21 27 1008.1 - 0.0 - - 10 - - - -
20/02:30pm 32.0 W 21 27 1008.2 - 0.0 - - 10 - - - -
20/02:00pm 31.2 WNW 19 25 1008.6 - 0.0 - - 10 - - - -
20/01:30pm 31.3 WNW 18 23 1009.0 - 0.0 - - 10 - - - -
20/01:00pm 30.9 WNW 19 23 1009.2 - 0.0 - - 10 - - - -
20/12:30pm 31.1 WNW 16 20 1009.4 - 0.0 - - 10 - - - -
20/12:00pm 30.9 WNW 15 19 1009.7 - 0.0 - - 10 - - - -
20/11:30am 32.9 SW 9 14 1010.0 - 0.0 - - 10 - - - -
20/11:00am 32.2 SW 9 13 1010.4 - 0.0 - - 10 - - - -
20/10:30am 31.7 SSW 9 12 1010.8 - 0.0 - - - - - - -
20/10:00am 30.6 SSW 9 13 1011.0 - 0.0 - - - - - - -
20/09:30am 29.5 SSW 10 14 1011.6 - 0.0 - - - - - - -
20/09:00am 27.5 SSW 10 14 1011.8 - 0.0 - - - - - - -
20/08:30am 26.7 SSW 10 13 1012.0 - 0.0 - - - - - - -
20/08:00am 25.9 SSW 12 15 1011.8 - 0.0 - - - - - - -

Other Formats:

Comma delimited format used in spreadsheet applications
http://www.bom.gov.au/fwo/IDW60701/IDW60701.95305.axf

JavaScript Object Notation format (JSON) in row-major order
http://www.bom.gov.au/fwo/IDW60701/IDW60701.95305.json